Time;durP1;ratioP1;P1;durP2;ratioP2;P2;SDS_P1;SDS_P2;PMS_P1;PMS_P2;Temp;Humidity;BMP_temperature;BMP_pressure;BME280_temperature;BME280_humidity;BME280_pressure;Samples;Min_cycle;Max_cycle;Signal;HPM_P1;HPM_P2
2021/11/03 00:01:10;;;;;;;;;;;14.10;99.90;;;;;;6138130;23;19912;-78
2021/11/03 00:03:39;;;;;;;;;;;14.20;99.90;;;;;;6138361;23;20008;-79
2021/11/03 00:06:05;;;;;;;;;;;14.20;99.90;;;;;;6139294;23;19929;-79
2021/11/03 00:08:32;;;;;;;;;;;14.20;99.90;;;;;;6138109;23;19905;-79
2021/11/03 00:10:58;;;;;;;;;;;14.20;99.90;;;;;;6139260;23;19905;-79
2021/11/03 00:13:24;;;;;;;;;;;14.20;99.90;;;;;;6138502;23;19916;-79
2021/11/03 00:15:51;;;;;;;;;;;14.30;99.90;;;;;;6139012;23;19909;-79
2021/11/03 00:18:17;;;;;;;;;;;14.30;99.90;;;;;;6138705;23;19991;-79
2021/11/03 00:20:43;;;;;;;;;;;14.30;99.90;;;;;;6138645;23;19912;-79
2021/11/03 00:23:09;;;;;;;;;;;14.30;99.90;;;;;;6137928;23;19905;-78
2021/11/03 00:25:37;;;;;;;;;;;14.30;99.90;;;;;;6138856;23;19905;-80
2021/11/03 00:28:03;;;;;;;;;;;14.40;99.90;;;;;;6138333;23;20000;-79
2021/11/03 00:30:29;;;;;;;;;;;14.30;99.90;;;;;;6113369;23;19909;-80
2021/11/03 00:32:55;;;;;;;;;;;14.30;99.90;;;;;;6137931;23;19939;-83
2021/11/03 00:35:20;;;;;;;;;;;14.30;99.90;;;;;;6138147;23;19905;-79
2021/11/03 00:37:46;;;;;;;;;;;14.30;99.90;;;;;;6130494;23;19964;-79
2021/11/03 00:40:12;;;;;;;;;;;14.30;99.90;;;;;;6129805;23;19941;-79
2021/11/03 00:42:38;;;;;;;;;;;14.30;99.90;;;;;;6130814;23;19912;-79
2021/11/03 00:45:04;;;;;;;;;;;14.30;99.90;;;;;;6132482;23;19915;-79
2021/11/03 00:47:30;;;;;;;;;;;14.30;99.90;;;;;;6126553;23;19967;-79
2021/11/03 00:49:55;;;;;;;;;;;14.20;99.90;;;;;;6127450;23;19909;-79
2021/11/03 00:52:21;;;;;;;;;;;14.30;99.90;;;;;;6130903;23;19952;-79
2021/11/03 00:54:48;;;;;;;;;;;14.30;99.90;;;;;;6129076;23;19905;-79
2021/11/03 00:57:14;;;;;;;;;;;14.20;99.90;;;;;;6129955;23;20315;-79
2021/11/03 00:59:40;;;;;;;;;;;14.10;99.90;;;;;;6132561;23;19905;-79
2021/11/03 01:02:05;;;;;;;;;;;14.10;99.90;;;;;;6131594;23;19913;-79
2021/11/03 01:04:31;;;;;;;;;;;14.00;99.90;;;;;;6131784;23;19936;-79
2021/11/03 01:06:57;;;;;;;;;;;14.00;99.90;;;;;;6130468;23;20225;-79
2021/11/03 01:09:22;;;;;;;;;;;14.00;99.90;;;;;;6131701;23;19991;-79
2021/11/03 01:11:49;;;;;;;;;;;14.00;99.90;;;;;;6131021;23;19905;-79
2021/11/03 01:14:16;;;;;;;;;;;14.00;99.90;;;;;;6131260;23;20373;-79
2021/11/03 01:16:41;;;;;;;;;;;14.00;99.90;;;;;;6130476;23;19905;-79
2021/11/03 01:19:07;;;;;;;;;;;14.00;99.90;;;;;;6130775;23;19957;-79
2021/11/03 01:21:34;;;;;;;;;;;13.90;99.90;;;;;;6133335;23;19915;-80
2021/11/03 01:24:00;;;;;;;;;;;13.90;99.90;;;;;;6138016;23;19928;-79
2021/11/03 01:26:25;;;;;;;;;;;13.90;99.90;;;;;;6139966;23;19905;-79
2021/11/03 01:28:51;;;;;;;;;;;13.90;99.90;;;;;;6140105;23;19974;-79
2021/11/03 01:31:17;;;;;;;;;;;13.90;99.90;;;;;;6140708;23;19956;-80
2021/11/03 01:33:43;;;;;;;;;;;13.80;99.90;;;;;;6140276;23;19936;-79
2021/11/03 01:36:09;;;;;;;;;;;13.80;99.90;;;;;;6140874;23;19974;-81
2021/11/03 01:38:35;;;;;;;;;;;13.80;99.90;;;;;;6141553;23;19977;-79
2021/11/03 01:41:00;;;;;;;;;;;13.80;99.90;;;;;;6140660;23;19913;-81
2021/11/03 01:43:32;;;;;;;;;;;13.80;99.90;;;;;;6141522;23;19916;-79
2021/11/03 01:46:16;;;;;;;;;;;13.90;99.90;;;;;;6142099;23;19909;-78
2021/11/03 01:48:42;;;;;;;;;;;13.90;99.90;;;;;;6141440;23;19905;-80
2021/11/03 01:51:10;;;;;;;;;;;13.90;99.90;;;;;;6138729;23;19932;-79
2021/11/03 01:53:36;;;;;;;;;;;13.80;99.90;;;;;;6138660;23;19988;-80
2021/11/03 01:56:04;;;;;;;;;;;13.80;99.90;;;;;;6140467;23;19911;-80
2021/11/03 01:58:50;;;;;;;;;;;13.90;99.90;;;;;;6142308;23;19908;-82
2021/11/03 02:01:16;;;;;;;;;;;13.80;99.90;;;;;;6139643;23;19909;-79
2021/11/03 02:03:42;;;;;;;;;;;13.70;99.90;;;;;;6114551;23;19905;-79
2021/11/03 02:06:11;;;;;;;;;;;13.60;99.90;;;;;;6138815;23;19909;-79
2021/11/03 02:08:38;;;;;;;;;;;13.50;99.90;;;;;;6111893;23;19912;-78
2021/11/03 02:11:04;;;;;;;;;;;13.50;99.90;;;;;;6137911;23;19955;-79
2021/11/03 02:13:30;;;;;;;;;;;13.50;99.90;;;;;;6138691;23;19905;-80
2021/11/03 02:15:56;;;;;;;;;;;13.50;99.90;;;;;;6139788;23;19909;-79
2021/11/03 02:18:22;;;;;;;;;;;13.50;99.90;;;;;;6140381;23;19909;-78
2021/11/03 02:20:49;;;;;;;;;;;13.50;99.90;;;;;;6112870;23;19911;-79
2021/11/03 02:23:25;;;;;;;;;;;13.50;99.90;;;;;;6138953;23;19905;-79
2021/11/03 02:26:04;;;;;;;;;;;13.60;99.90;;;;;;6139235;23;19905;-79
2021/11/03 02:28:30;;;;;;;;;;;13.50;99.90;;;;;;6139309;23;19905;-81
2021/11/03 02:30:56;;;;;;;;;;;13.50;99.90;;;;;;6113757;23;19995;-79
2021/11/03 02:33:23;;;;;;;;;;;13.60;99.90;;;;;;6138338;23;19928;-79
2021/11/03 02:35:53;;;;;;;;;;;13.50;99.90;;;;;;6138456;23;19905;-80
2021/11/03 02:38:24;;;;;;;;;;;13.50;99.90;;;;;;6138849;23;19909;-79
2021/11/03 02:40:55;;;;;;;;;;;13.50;99.90;;;;;;6138681;23;19929;-79
2021/11/03 02:43:23;;;;;;;;;;;13.50;99.90;;;;;;6138509;23;19933;-79
2021/11/03 02:45:53;;;;;;;;;;;13.60;99.90;;;;;;6135079;23;19912;-78
2021/11/03 02:48:20;;;;;;;;;;;13.50;99.90;;;;;;6137773;23;19905;-79
2021/11/03 02:50:54;;;;;;;;;;;13.50;99.90;;;;;;6138129;23;20326;-80
2021/11/03 02:53:20;;;;;;;;;;;13.50;99.90;;;;;;6137614;23;19909;-81
2021/11/03 02:55:46;;;;;;;;;;;13.50;99.90;;;;;;6134332;23;19931;-78
2021/11/03 02:58:12;;;;;;;;;;;13.50;99.90;;;;;;6107431;23;19920;-79
2021/11/03 03:00:38;;;;;;;;;;;13.60;99.90;;;;;;6137959;23;19916;-79
2021/11/03 03:03:03;;;;;;;;;;;13.60;99.90;;;;;;6138316;23;19905;-82
2021/11/03 03:05:29;;;;;;;;;;;13.60;99.90;;;;;;6135512;23;19904;-79
2021/11/03 03:07:55;;;;;;;;;;;13.50;99.90;;;;;;6137615;23;19905;-80
2021/11/03 03:10:20;;;;;;;;;;;13.40;99.90;;;;;;6138203;23;19912;-80
2021/11/03 03:12:46;;;;;;;;;;;13.30;99.90;;;;;;6137473;23;20392;-79
2021/11/03 03:15:12;;;;;;;;;;;13.30;99.90;;;;;;6111447;23;19961;-81
2021/11/03 03:17:38;;;;;;;;;;;13.30;99.90;;;;;;6111776;23;19909;-80
2021/11/03 03:20:05;;;;;;;;;;;13.30;99.90;;;;;;6111324;23;19939;-79
2021/11/03 03:22:31;;;;;;;;;;;13.30;99.90;;;;;;6138391;23;19905;-79
2021/11/03 03:24:56;;;;;;;;;;;13.30;99.90;;;;;;6137359;23;19920;-79
2021/11/03 03:27:22;;;;;;;;;;;13.30;99.90;;;;;;6135913;23;19905;-79
2021/11/03 03:29:48;;;;;;;;;;;13.30;99.90;;;;;;6137503;23;19905;-80
2021/11/03 03:32:14;;;;;;;;;;;13.30;99.90;;;;;;6136181;23;19912;-80
2021/11/03 03:34:40;;;;;;;;;;;13.30;99.90;;;;;;6138297;23;19905;-79
2021/11/03 03:37:06;;;;;;;;;;;13.30;99.90;;;;;;6137196;23;19921;-81
2021/11/03 03:39:31;;;;;;;;;;;13.30;99.90;;;;;;6111515;23;19905;-79
2021/11/03 03:42:03;;;;;;;;;;;13.40;99.90;;;;;;6135157;23;19919;-79
2021/11/03 03:44:29;;;;;;;;;;;13.30;99.90;;;;;;6109964;23;20388;-79
2021/11/03 03:46:55;;;;;;;;;;;13.40;99.90;;;;;;6136654;23;19904;-80
2021/11/03 03:49:21;;;;;;;;;;;13.40;99.90;;;;;;6137800;23;19905;-80
2021/11/03 03:51:47;;;;;;;;;;;13.30;99.90;;;;;;6137156;23;19952;-79
2021/11/03 03:54:13;;;;;;;;;;;13.40;99.90;;;;;;6137583;23;19905;-81
2021/11/03 03:56:39;;;;;;;;;;;13.40;99.90;;;;;;6136679;23;19909;-79
2021/11/03 03:59:04;;;;;;;;;;;13.40;99.90;;;;;;6137408;23;19988;-79
2021/11/03 04:01:30;;;;;;;;;;;13.50;99.90;;;;;;6137500;23;19953;-79
2021/11/03 04:03:56;;;;;;;;;;;13.50;99.90;;;;;;6138092;23;19909;-79
2021/11/03 04:06:22;;;;;;;;;;;13.50;99.90;;;;;;6137376;23;19905;-80
2021/11/03 04:08:48;;;;;;;;;;;13.50;99.90;;;;;;6137165;23;19912;-79
2021/11/03 04:11:14;;;;;;;;;;;13.50;99.90;;;;;;6136435;23;19905;-79
2021/11/03 04:13:40;;;;;;;;;;;13.50;99.90;;;;;;6110084;23;19952;-80
2021/11/03 04:16:06;;;;;;;;;;;13.50;99.90;;;;;;6136994;23;19913;-79
2021/11/03 04:18:32;;;;;;;;;;;13.40;99.90;;;;;;6109213;23;19952;-80
2021/11/03 04:20:58;;;;;;;;;;;13.50;99.90;;;;;;6136370;23;19905;-79
2021/11/03 04:23:24;;;;;;;;;;;13.50;99.90;;;;;;6110635;23;19905;-80
2021/11/03 04:25:49;;;;;;;;;;;13.50;99.90;;;;;;6136481;23;19925;-80
2021/11/03 04:28:16;;;;;;;;;;;13.60;99.90;;;;;;6136742;23;20234;-79
2021/11/03 04:30:42;;;;;;;;;;;13.70;99.90;;;;;;6136738;23;19924;-79
2021/11/03 04:33:08;;;;;;;;;;;13.70;99.90;;;;;;6137899;23;19905;-79
2021/11/03 04:35:34;;;;;;;;;;;13.80;99.90;;;;;;6138527;23;19983;-79
2021/11/03 04:38:00;;;;;;;;;;;13.80;99.90;;;;;;6138456;23;19916;-78
2021/11/03 04:40:27;;;;;;;;;;;13.80;99.90;;;;;;6138331;23;20313;-79
2021/11/03 04:42:53;;;;;;;;;;;13.80;99.90;;;;;;6110242;23;20242;-79
2021/11/03 04:45:19;;;;;;;;;;;13.90;99.90;;;;;;6137065;23;19905;-78
2021/11/03 04:47:46;;;;;;;;;;;13.90;99.90;;;;;;6144104;23;19909;-78
2021/11/03 04:50:16;;;;;;;;;;;13.80;99.90;;;;;;6143953;23;19948;-78
2021/11/03 04:52:43;;;;;;;;;;;13.80;99.90;;;;;;6143659;23;19951;-78
2021/11/03 04:55:09;;;;;;;;;;;13.80;99.90;;;;;;6141894;23;20024;-79
2021/11/03 04:57:34;;;;;;;;;;;13.80;99.90;;;;;;6138159;23;20446;-80
2021/11/03 05:00:04;;;;;;;;;;;13.80;99.90;;;;;;6136927;23;19912;-79
2021/11/03 05:02:30;;;;;;;;;;;13.80;99.90;;;;;;6137345;23;19909;-79
2021/11/03 05:04:56;;;;;;;;;;;13.80;99.90;;;;;;6146877;23;19916;-79
2021/11/03 05:10:46;;;;;;;;;;;13.80;99.90;;;;;;5979691;23;19930;-78
2021/11/03 05:13:12;;;;;;;;;;;13.80;99.90;;;;;;6049660;23;19972;-79
2021/11/03 05:15:38;;;;;;;;;;;13.80;99.90;;;;;;6135989;23;19983;-79
2021/11/03 05:18:04;;;;;;;;;;;13.80;99.90;;;;;;6102970;23;19909;-79
2021/11/03 05:20:35;;;;;;;;;;;13.80;99.90;;;;;;6137926;23;19915;-80
2021/11/03 05:23:02;;;;;;;;;;;13.80;99.90;;;;;;6141203;23;19909;-78
2021/11/03 05:25:28;;;;;;;;;;;13.90;99.90;;;;;;6140599;23;19905;-79
2021/11/03 05:27:55;;;;;;;;;;;13.90;99.90;;;;;;6141902;23;19916;-78
2021/11/03 05:30:25;;;;;;;;;;;13.90;99.90;;;;;;6114936;23;19905;-79
2021/11/03 05:32:51;;;;;;;;;;;13.80;99.90;;;;;;6114393;23;19932;-79
2021/11/03 05:35:23;;;;;;;;;;;13.80;99.90;;;;;;6142384;23;19942;-78
2021/11/03 05:37:49;;;;;;;;;;;13.80;99.90;;;;;;6140718;23;19909;-79
2021/11/03 05:40:18;;;;;;;;;;;13.80;99.90;;;;;;6142834;23;19917;-78
2021/11/03 05:42:44;;;;;;;;;;;13.80;99.90;;;;;;6140702;23;19969;-78
2021/11/03 05:45:10;;;;;;;;;;;13.70;99.90;;;;;;6141302;23;19905;-78
2021/11/03 05:47:36;;;;;;;;;;;13.80;99.90;;;;;;6140833;23;19936;-77
2021/11/03 05:50:03;;;;;;;;;;;13.80;99.90;;;;;;6142073;23;19916;-77
2021/11/03 05:52:28;;;;;;;;;;;13.80;99.90;;;;;;6142077;23;19909;-79
2021/11/03 05:55:05;;;;;;;;;;;13.80;99.90;;;;;;6139818;23;19929;-78
2021/11/03 05:57:33;;;;;;;;;;;13.80;99.90;;;;;;6114246;23;19909;-79
2021/11/03 06:00:12;;;;;;;;;;;13.80;99.90;;;;;;6140090;23;19912;-78
2021/11/03 06:02:38;;;;;;;;;;;13.90;99.90;;;;;;6141267;23;19912;-78
2021/11/03 06:05:04;;;;;;;;;;;13.90;99.90;;;;;;6140315;23;19904;-78
2021/11/03 06:07:34;;;;;;;;;;;13.90;99.90;;;;;;6140191;23;20233;-80
2021/11/03 06:10:01;;;;;;;;;;;13.90;99.90;;;;;;6143062;23;19905;-79
2021/11/03 06:12:27;;;;;;;;;;;13.90;99.90;;;;;;6143077;23;19908;-78
2021/11/03 06:14:52;;;;;;;;;;;13.90;99.90;;;;;;6143377;23;19919;-78
2021/11/03 06:17:19;;;;;;;;;;;13.90;99.90;;;;;;6142819;23;19990;-79
2021/11/03 06:19:50;;;;;;;;;;;14.00;99.90;;;;;;6143616;23;19912;-79
2021/11/03 06:22:16;;;;;;;;;;;14.00;99.90;;;;;;6141788;23;19932;-77
2021/11/03 06:24:45;;;;;;;;;;;14.00;99.90;;;;;;6142489;23;19912;-79
2021/11/03 06:27:10;;;;;;;;;;;14.00;99.90;;;;;;6140649;23;19930;-80
2021/11/03 06:29:36;;;;;;;;;;;14.10;99.90;;;;;;6143221;23;19908;-78
2021/11/03 06:32:02;;;;;;;;;;;14.20;99.90;;;;;;6142488;23;19912;-78
2021/11/03 06:34:28;;;;;;;;;;;14.40;99.90;;;;;;6142747;23;19905;-79
2021/11/03 06:36:54;;;;;;;;;;;14.40;99.90;;;;;;6116019;23;19913;-78
2021/11/03 06:39:22;;;;;;;;;;;14.50;99.90;;;;;;6143758;23;19920;-82
2021/11/03 06:41:48;;;;;;;;;;;14.50;99.90;;;;;;6144424;23;19935;-79
2021/11/03 06:44:14;;;;;;;;;;;14.50;99.90;;;;;;6142169;23;19988;-79
2021/11/03 06:46:40;;;;;;;;;;;14.50;99.90;;;;;;6116149;23;19909;-79
2021/11/03 06:49:06;;;;;;;;;;;14.50;99.90;;;;;;6143043;23;19913;-79
2021/11/03 06:51:33;;;;;;;;;;;14.50;99.90;;;;;;6116279;23;19915;-79
2021/11/03 06:54:00;;;;;;;;;;;14.40;99.90;;;;;;6142170;23;19911;-81
2021/11/03 06:56:26;;;;;;;;;;;14.50;99.90;;;;;;6141673;23;19919;-78
2021/11/03 06:58:52;;;;;;;;;;;14.50;99.90;;;;;;6141739;23;19909;-80
2021/11/03 07:01:17;;;;;;;;;;;14.60;99.90;;;;;;6114492;23;19949;-78
2021/11/03 07:03:44;;;;;;;;;;;14.60;99.90;;;;;;6141035;23;19916;-79
2021/11/03 07:06:10;;;;;;;;;;;14.70;99.90;;;;;;6140246;23;19905;-80
2021/11/03 07:08:36;;;;;;;;;;;14.80;99.90;;;;;;6139454;23;19935;-79
2021/11/03 07:11:01;;;;;;;;;;;14.90;99.90;;;;;;6138027;23;19956;-81
2021/11/03 07:13:28;;;;;;;;;;;15.00;99.90;;;;;;6142561;23;19916;-79
2021/11/03 07:15:53;;;;;;;;;;;15.00;99.90;;;;;;6115917;23;20333;-79
2021/11/03 07:18:19;;;;;;;;;;;15.10;99.90;;;;;;6143069;23;19932;-79
2021/11/03 07:20:46;;;;;;;;;;;15.10;99.90;;;;;;6142749;23;20036;-79
2021/11/03 07:23:12;;;;;;;;;;;15.20;99.90;;;;;;6143874;23;19905;-79
2021/11/03 07:25:38;;;;;;;;;;;15.20;99.90;;;;;;6144391;23;19905;-78
2021/11/03 07:28:04;;;;;;;;;;;15.40;99.90;;;;;;6143611;23;19905;-79
2021/11/03 07:30:31;;;;;;;;;;;15.40;99.90;;;;;;6142230;23;19905;-79
2021/11/03 07:33:05;;;;;;;;;;;15.50;99.90;;;;;;6141682;23;19971;-79
2021/11/03 07:35:32;;;;;;;;;;;15.60;99.90;;;;;;6118596;23;19905;-81
2021/11/03 07:37:58;;;;;;;;;;;15.70;99.90;;;;;;6115945;23;19952;-79
2021/11/03 07:40:26;;;;;;;;;;;15.70;99.90;;;;;;6146361;23;20089;-79
2021/11/03 07:42:57;;;;;;;;;;;15.70;99.90;;;;;;6145714;23;19916;-80
2021/11/03 07:45:24;;;;;;;;;;;15.80;99.90;;;;;;6144088;23;19905;-79
2021/11/03 07:47:49;;;;;;;;;;;15.80;99.90;;;;;;6142861;23;19905;-80
2021/11/03 07:50:26;;;;;;;;;;;15.90;99.90;;;;;;6143586;23;19905;-79
2021/11/03 07:52:52;;;;;;;;;;;16.00;99.90;;;;;;6144459;23;19916;-78
2021/11/03 07:55:18;;;;;;;;;;;16.00;99.90;;;;;;6145498;23;19893;-81
2021/11/03 07:57:44;;;;;;;;;;;16.10;99.90;;;;;;6143943;23;19952;-78
2021/11/03 08:00:16;;;;;;;;;;;16.10;99.90;;;;;;6143715;23;19953;-82
2021/11/03 08:02:42;;;;;;;;;;;16.20;99.90;;;;;;6144391;23;19905;-79
2021/11/03 08:05:08;;;;;;;;;;;16.30;99.90;;;;;;6143975;23;19908;-79
2021/11/03 08:07:33;;;;;;;;;;;16.40;99.90;;;;;;6118007;23;19974;-82
2021/11/03 08:09:59;;;;;;;;;;;16.40;99.90;;;;;;6144178;23;19905;-82
2021/11/03 08:12:25;;;;;;;;;;;16.50;99.90;;;;;;6143632;23;20237;-79
2021/11/03 08:14:51;;;;;;;;;;;16.60;99.90;;;;;;6145089;23;19899;-79
2021/11/03 08:17:20;;;;;;;;;;;16.70;99.90;;;;;;6144273;23;19905;-81
2021/11/03 08:19:48;;;;;;;;;;;16.70;99.90;;;;;;6144278;23;19912;-79
2021/11/03 08:22:15;;;;;;;;;;;16.70;99.90;;;;;;6144484;23;19905;-79
2021/11/03 08:24:40;;;;;;;;;;;16.70;99.90;;;;;;6144842;23;19953;-80
2021/11/03 08:27:07;;;;;;;;;;;16.80;99.90;;;;;;6143806;23;19908;-79
2021/11/03 08:29:33;;;;;;;;;;;16.90;99.90;;;;;;6145059;23;19911;-79
2021/11/03 08:31:59;;;;;;;;;;;17.00;99.90;;;;;;6143779;23;19908;-80
2021/11/03 08:34:26;;;;;;;;;;;17.00;99.90;;;;;;6144682;23;19979;-79
2021/11/03 08:36:53;;;;;;;;;;;16.90;99.90;;;;;;6144162;23;19911;-79
2021/11/03 08:39:19;;;;;;;;;;;16.80;99.90;;;;;;6144789;23;19916;-78
2021/11/03 08:41:44;;;;;;;;;;;17.00;99.90;;;;;;6144838;23;19917;-80
2021/11/03 08:44:10;;;;;;;;;;;17.00;99.90;;;;;;6144303;23;19905;-79
2021/11/03 08:46:36;;;;;;;;;;;17.10;99.90;;;;;;6143424;23;19905;-80
2021/11/03 08:49:03;;;;;;;;;;;17.10;99.90;;;;;;6117530;23;19905;-79
2021/11/03 08:51:30;;;;;;;;;;;17.00;99.90;;;;;;6143531;23;19988;-82
2021/11/03 08:53:56;;;;;;;;;;;17.00;99.90;;;;;;6143442;23;19952;-79
2021/11/03 08:56:22;;;;;;;;;;;17.00;99.90;;;;;;6142646;23;19905;-79
2021/11/03 08:58:48;;;;;;;;;;;17.10;99.90;;;;;;6144298;23;19932;-79
2021/11/03 09:01:14;;;;;;;;;;;17.10;99.90;;;;;;6142599;23;19908;-81
2021/11/03 09:03:40;;;;;;;;;;;17.20;99.90;;;;;;6141501;23;19905;-79
2021/11/03 09:06:06;;;;;;;;;;;17.50;99.90;;;;;;6142500;23;19915;-80
2021/11/03 09:08:32;;;;;;;;;;;17.60;99.90;;;;;;6139783;23;19916;-78
2021/11/03 09:11:02;;;;;;;;;;;17.70;99.90;;;;;;6140320;23;19929;-79
2021/11/03 09:13:31;;;;;;;;;;;17.80;99.90;;;;;;6140610;23;19905;-80
2021/11/03 09:15:57;;;;;;;;;;;17.70;99.90;;;;;;6113899;23;20368;-78
2021/11/03 09:18:23;;;;;;;;;;;17.80;99.90;;;;;;6113400;23;19912;-78
2021/11/03 09:20:50;;;;;;;;;;;17.90;99.90;;;;;;6140262;23;19916;-79
2021/11/03 09:23:16;;;;;;;;;;;18.00;99.90;;;;;;6140407;23;19916;-79
2021/11/03 09:25:43;;;;;;;;;;;18.00;99.90;;;;;;6139508;23;19916;-78
2021/11/03 09:28:09;;;;;;;;;;;18.00;99.90;;;;;;6140254;23;19905;-79
2021/11/03 09:30:36;;;;;;;;;;;18.00;99.90;;;;;;6140458;23;20126;-79
2021/11/03 09:33:03;;;;;;;;;;;18.10;99.90;;;;;;6136663;23;19905;-78
2021/11/03 09:35:31;;;;;;;;;;;18.10;99.90;;;;;;6135361;23;19932;-79
2021/11/03 09:37:57;;;;;;;;;;;18.20;99.90;;;;;;6133655;23;19920;-79
2021/11/03 09:40:33;;;;;;;;;;;18.30;99.90;;;;;;6136055;23;19937;-79
2021/11/03 09:42:59;;;;;;;;;;;18.50;99.90;;;;;;6136322;23;19905;-78
2021/11/03 09:45:28;;;;;;;;;;;18.70;99.90;;;;;;6110747;23;19928;-78
2021/11/03 09:48:12;;;;;;;;;;;18.70;99.90;;;;;;6137361;23;19932;-78
2021/11/03 09:50:39;;;;;;;;;;;18.80;99.90;;;;;;6138402;23;19935;-79
2021/11/03 09:53:19;;;;;;;;;;;18.70;99.90;;;;;;6138771;23;19920;-79
2021/11/03 09:55:45;;;;;;;;;;;18.60;99.90;;;;;;6138800;23;20333;-79
2021/11/03 09:58:43;;;;;;;;;;;18.50;99.90;;;;;;6138187;23;19916;-79
2021/11/03 10:01:16;;;;;;;;;;;18.50;99.90;;;;;;6062651;23;19939;-79
2021/11/03 10:03:45;;;;;;;;;;;18.40;99.90;;;;;;6109561;23;20326;-79
2021/11/03 10:06:29;;;;;;;;;;;18.20;99.90;;;;;;6134790;23;20333;-79
2021/11/03 10:08:55;;;;;;;;;;;18.00;99.90;;;;;;6135755;23;19920;-78
2021/11/03 10:11:30;;;;;;;;;;;17.90;99.90;;;;;;6135259;23;19905;-78
2021/11/03 10:13:58;;;;;;;;;;;17.90;99.90;;;;;;6134797;23;19909;-82
2021/11/03 10:16:24;;;;;;;;;;;17.80;99.90;;;;;;6134156;23;19905;-78
2021/11/03 10:18:56;;;;;;;;;;;17.80;99.90;;;;;;6132913;23;19932;-78
2021/11/03 10:21:24;;;;;;;;;;;17.80;99.90;;;;;;6132945;23;19929;-80
2021/11/03 10:23:50;;;;;;;;;;;17.80;99.90;;;;;;6135980;23;20241;-78
2021/11/03 10:26:16;;;;;;;;;;;17.80;99.90;;;;;;6136723;23;19929;-79
2021/11/03 10:28:43;;;;;;;;;;;17.80;99.90;;;;;;6139026;23;19905;-79
2021/11/03 10:31:20;;;;;;;;;;;17.70;99.90;;;;;;6140012;23;19916;-80
2021/11/03 10:33:46;;;;;;;;;;;17.80;99.90;;;;;;6141678;23;19908;-79
2021/11/03 10:36:24;;;;;;;;;;;17.70;99.90;;;;;;6138387;23;19935;-79
2021/11/03 10:38:56;;;;;;;;;;;17.70;99.90;;;;;;6109825;23;19916;-77
2021/11/03 10:41:26;;;;;;;;;;;17.70;99.90;;;;;;6135489;23;19913;-78
2021/11/03 10:44:01;;;;;;;;;;;17.70;99.90;;;;;;6133794;23;19988;-78
2021/11/03 10:46:30;;;;;;;;;;;17.70;99.90;;;;;;6134023;23;19909;-71
2021/11/03 10:49:11;;;;;;;;;;;17.70;99.90;;;;;;6135329;23;19908;-71
2021/11/03 10:51:39;;;;;;;;;;;17.70;99.90;;;;;;6134725;23;19988;-71
2021/11/03 10:54:16;;;;;;;;;;;17.70;99.90;;;;;;6109040;23;19905;-70
2021/11/03 10:56:54;;;;;;;;;;;17.80;99.90;;;;;;6135887;23;19928;-71
2021/11/03 10:59:19;;;;;;;;;;;17.90;99.90;;;;;;6133837;23;19935;-70
2021/11/03 11:01:46;;;;;;;;;;;18.00;99.90;;;;;;6134982;23;19948;-70
2021/11/03 11:04:15;;;;;;;;;;;18.10;99.90;;;;;;6135204;23;19924;-71
2021/11/03 11:06:47;;;;;;;;;;;18.10;99.90;;;;;;6133265;23;19905;-70
2021/11/03 11:09:19;;;;;;;;;;;18.20;99.90;;;;;;6134249;23;20246;-70
2021/11/03 11:11:46;;;;;;;;;;;18.10;99.90;;;;;;6135275;23;19904;-70
2021/11/03 11:14:17;;;;;;;;;;;18.00;99.90;;;;;;6108777;23;20296;-78
2021/11/03 11:16:49;;;;;;;;;;;17.80;99.90;;;;;;6129602;23;19916;-79
2021/11/03 11:19:19;;;;;;;;;;;17.90;99.90;;;;;;6134710;23;19909;-79
2021/11/03 11:21:54;;;;;;;;;;;18.00;99.90;;;;;;6132754;23;19905;-79
2021/11/03 11:25:13;;;;;;;;;;;18.00;99.90;;;;;;6135460;23;19905;-79
2021/11/03 11:30:46;;;;;;;;;;;18.10;99.90;;;;;;6125491;23;20210;-80
2021/11/03 11:33:51;;;;;;;;;;;18.20;99.90;;;;;;6142156;23;19976;-79
2021/11/03 11:43:15;;;;;;;;;;;18.40;99.90;;;;;;5849656;24;19969;-78
2021/11/03 11:45:54;;;;;;;;;;;18.30;99.90;;;;;;5855763;24;19932;-78
2021/11/03 11:48:38;;;;;;;;;;;18.10;99.90;;;;;;5920862;23;19914;-79
2021/11/03 11:51:17;;;;;;;;;;;18.20;99.90;;;;;;6103297;23;19916;-78
2021/11/03 11:53:49;;;;;;;;;;;18.20;99.90;;;;;;6130889;23;20353;-83
2021/11/03 11:56:15;;;;;;;;;;;18.20;99.90;;;;;;6134863;23;19928;-80
2021/11/03 11:58:45;;;;;;;;;;;18.20;99.90;;;;;;6133355;23;19913;-80
2021/11/03 12:01:14;;;;;;;;;;;18.10;99.90;;;;;;6132130;23;19943;-80
2021/11/03 12:03:57;;;;;;;;;;;18.00;99.90;;;;;;6132648;23;19909;-78
2021/11/03 12:06:57;;;;;;;;;;;18.00;99.90;;;;;;6134004;23;19905;-78
2021/11/03 12:09:25;;;;;;;;;;;17.80;99.90;;;;;;6135740;23;20337;-78
2021/11/03 12:11:54;;;;;;;;;;;17.90;99.90;;;;;;6134629;23;19924;-78
2021/11/03 12:14:23;;;;;;;;;;;17.90;99.90;;;;;;6133151;23;19904;-78
2021/11/03 12:16:54;;;;;;;;;;;17.90;99.90;;;;;;6134303;23;19986;-78
2021/11/03 12:19:38;;;;;;;;;;;18.00;99.90;;;;;;6127038;23;19944;-81
2021/11/03 12:22:12;;;;;;;;;;;17.90;99.90;;;;;;6129499;23;19924;-81
2021/11/03 12:28:21;;;;;;;;;;;;;;;;;;;;;
2021/11/03 12:31:05;;;;;;;;;;;18.00;99.90;;;;;;6044432;23;19983;-79
2021/11/03 12:33:51;;;;;;;;;;;18.00;99.90;;;;;;6127596;23;19905;-78
2021/11/03 12:36:21;;;;;;;;;;;17.90;99.90;;;;;;6135263;23;20262;-78
2021/11/03 12:45:09;;;;;;;;;;;17.70;99.90;;;;;;6142615;23;19951;-78
2021/11/03 12:48:17;;;;;;;;;;;;;;;;;;;;;
2021/11/03 12:50:46;;;;;;;;;;;17.70;99.90;;;;;;6050896;23;19914;-79
2021/11/03 12:53:15;;;;;;;;;;;17.70;99.90;;;;;;6074029;23;19912;-78
2021/11/03 12:55:47;;;;;;;;;;;17.70;99.90;;;;;;6134240;23;19916;-78
2021/11/03 12:58:33;;;;;;;;;;;17.70;99.90;;;;;;6128454;23;19909;-78
2021/11/03 13:01:00;;;;;;;;;;;17.60;99.90;;;;;;6136531;23;19916;-77
2021/11/03 13:03:54;;;;;;;;;;;;;;;;;;;;;
2021/11/03 13:06:53;;;;;;;;;;;17.70;99.90;;;;;;6137695;23;19912;-77
2021/11/03 13:09:56;;;;;;;;;;;17.60;99.90;;;;;;6101464;23;19916;-76
2021/11/03 13:12:23;;;;;;;;;;;17.60;99.90;;;;;;6130568;23;19909;-77
2021/11/03 13:14:54;;;;;;;;;;;17.60;99.90;;;;;;6130967;23;19981;-78
2021/11/03 13:17:28;;;;;;;;;;;17.70;99.90;;;;;;6129703;23;19916;-77
2021/11/03 13:19:56;;;;;;;;;;;17.70;99.90;;;;;;6128797;23;19905;-78
2021/11/03 13:22:24;;;;;;;;;;;17.80;99.90;;;;;;6129633;23;19905;-78
2021/11/03 13:24:53;;;;;;;;;;;17.70;99.90;;;;;;6128127;23;19905;-79
2021/11/03 13:27:24;;;;;;;;;;;17.70;99.90;;;;;;6102408;23;19905;-78
2021/11/03 13:29:53;;;;;;;;;;;17.60;99.90;;;;;;6128428;23;19905;-81
2021/11/03 13:32:24;;;;;;;;;;;17.60;99.90;;;;;;6105575;23;20253;-79
2021/11/03 13:34:55;;;;;;;;;;;17.50;99.90;;;;;;6134281;23;19905;-79
2021/11/03 13:37:34;;;;;;;;;;;17.40;99.90;;;;;;6128155;23;19905;-79
2021/11/03 13:40:12;;;;;;;;;;;17.30;99.90;;;;;;6130827;23;19929;-78
2021/11/03 13:42:42;;;;;;;;;;;17.30;99.90;;;;;;6131534;23;20306;-79
2021/11/03 13:45:20;;;;;;;;;;;17.10;99.90;;;;;;6132361;23;20091;-78
2021/11/03 13:48:04;;;;;;;;;;;16.90;99.90;;;;;;6133656;23;19913;-78
2021/11/03 13:50:34;;;;;;;;;;;16.70;99.90;;;;;;6132901;23;19905;-78
2021/11/03 13:53:09;;;;;;;;;;;16.60;99.90;;;;;;6105898;23;19905;-79
2021/11/03 13:55:58;;;;;;;;;;;16.50;99.90;;;;;;6129250;23;19956;-79
2021/11/03 13:58:23;;;;;;;;;;;16.50;99.90;;;;;;6128651;23;19909;-78
2021/11/03 14:01:22;;;;;;;;;;;16.40;99.90;;;;;;6141258;23;19925;-80
2021/11/03 14:03:50;;;;;;;;;;;16.30;99.90;;;;;;6087886;23;19905;-80
2021/11/03 14:06:45;;;;;;;;;;;16.30;99.90;;;;;;6137848;23;19904;-80
2021/11/03 14:09:14;;;;;;;;;;;16.10;99.90;;;;;;6136273;23;19968;-80
2021/11/03 14:11:41;;;;;;;;;;;16.10;99.90;;;;;;6134693;23;19905;-78
2021/11/03 14:14:07;;;;;;;;;;;16.10;99.90;;;;;;6132859;23;19909;-79
2021/11/03 14:16:45;;;;;;;;;;;16.00;99.90;;;;;;6131502;23;19905;-78
2021/11/03 14:19:22;;;;;;;;;;;16.00;99.90;;;;;;6127216;23;19929;-78
2021/11/03 14:21:48;;;;;;;;;;;15.90;99.90;;;;;;6131336;23;19905;-80
2021/11/03 14:24:14;;;;;;;;;;;15.80;99.90;;;;;;6106968;23;19928;-79
2021/11/03 14:26:40;;;;;;;;;;;15.70;99.90;;;;;;6130889;23;19905;-79
2021/11/03 14:29:06;;;;;;;;;;;15.70;99.90;;;;;;6105383;23;19940;-78
2021/11/03 14:31:31;;;;;;;;;;;15.70;99.90;;;;;;6132583;23;19972;-80
2021/11/03 14:33:59;;;;;;;;;;;15.60;99.90;;;;;;6134045;23;20325;-79
2021/11/03 14:36:25;;;;;;;;;;;15.60;99.90;;;;;;6127817;23;19905;-79
2021/11/03 14:38:52;;;;;;;;;;;15.50;99.90;;;;;;6129861;23;19916;-78
2021/11/03 14:41:22;;;;;;;;;;;15.40;99.90;;;;;;6100456;23;19909;-78
2021/11/03 14:43:49;;;;;;;;;;;15.40;99.90;;;;;;6127169;23;19905;-79
2021/11/03 14:46:30;;;;;;;;;;;15.40;99.90;;;;;;6101126;23;19927;-78
2021/11/03 14:48:56;;;;;;;;;;;15.40;99.90;;;;;;6126732;23;19981;-79
2021/11/03 14:51:23;;;;;;;;;;;15.40;99.90;;;;;;6143422;23;19905;-80
2021/11/03 14:53:49;;;;;;;;;;;15.40;99.90;;;;;;6142500;23;19929;-79
2021/11/03 14:56:17;;;;;;;;;;;15.40;99.90;;;;;;6141087;23;19916;-80